sensor_id;sensor_type;location;lat;lon;timestamp;P1;durP1;ratioP1;P2;durP2;ratioP2
52776;SDS011;38656;54.260;20.822;2023-11-19T00:00:50;14.68;;;10.05;;
52776;SDS011;38656;54.260;20.822;2023-11-19T00:03:17;13.77;;;9.75;;
52776;SDS011;38656;54.260;20.822;2023-11-19T00:05:43;12.35;;;9.60;;
52776;SDS011;38656;54.260;20.822;2023-11-19T00:08:13;10.85;;;9.65;;
52776;SDS011;38656;54.260;20.822;2023-11-19T00:10:39;14.88;;;11.23;;
52776;SDS011;38656;54.260;20.822;2023-11-19T00:13:05;15.90;;;11.02;;
52776;SDS011;38656;54.260;20.822;2023-11-19T00:15:32;13.40;;;10.15;;
52776;SDS011;38656;54.260;20.822;2023-11-19T00:17:58;14.32;;;10.60;;
52776;SDS011;38656;54.260;20.822;2023-11-19T00:20:24;16.75;;;10.85;;
52776;SDS011;38656;54.260;20.822;2023-11-19T00:22:50;14.40;;;10.32;;
52776;SDS011;38656;54.260;20.822;2023-11-19T00:25:17;11.68;;;10.48;;
52776;SDS011;38656;54.260;20.822;2023-11-19T00:27:43;15.15;;;12.30;;
52776;SDS011;38656;54.260;20.822;2023-11-19T00:30:10;16.27;;;12.23;;
52776;SDS011;38656;54.260;20.822;2023-11-19T00:32:36;10.98;;;9.82;;
52776;SDS011;38656;54.260;20.822;2023-11-19T00:35:05;12.05;;;10.32;;
52776;SDS011;38656;54.260;20.822;2023-11-19T00:37:32;15.70;;;10.57;;
52776;SDS011;38656;54.260;20.822;2023-11-19T00:39:59;11.05;;;9.38;;
52776;SDS011;38656;54.260;20.822;2023-11-19T00:42:25;12.82;;;9.90;;
52776;SDS011;38656;54.260;20.822;2023-11-19T00:44:54;11.13;;;9.93;;
52776;SDS011;38656;54.260;20.822;2023-11-19T00:47:20;11.88;;;9.50;;
52776;SDS011;38656;54.260;20.822;2023-11-19T00:49:47;12.32;;;11.02;;
52776;SDS011;38656;54.260;20.822;2023-11-19T00:52:16;18.52;;;10.43;;
52776;SDS011;38656;54.260;20.822;2023-11-19T00:54:43;10.80;;;9.70;;
52776;SDS011;38656;54.260;20.822;2023-11-19T00:57:09;10.25;;;9.25;;
52776;SDS011;38656;54.260;20.822;2023-11-19T00:59:36;7.95;;;7.10;;
52776;SDS011;38656;54.260;20.822;2023-11-19T01:02:02;9.23;;;8.07;;
52776;SDS011;38656;54.260;20.822;2023-11-19T01:04:34;10.80;;;7.75;;
52776;SDS011;38656;54.260;20.822;2023-11-19T01:07:03;10.25;;;7.70;;
52776;SDS011;38656;54.260;20.822;2023-11-19T01:09:31;15.18;;;9.07;;
52776;SDS011;38656;54.260;20.822;2023-11-19T01:12:00;9.45;;;8.27;;
52776;SDS011;38656;54.260;20.822;2023-11-19T01:14:27;10.73;;;7.90;;
52776;SDS011;38656;54.260;20.822;2023-11-19T01:16:53;8.98;;;7.25;;
52776;SDS011;38656;54.260;20.822;2023-11-19T01:19:22;8.35;;;6.68;;
52776;SDS011;38656;54.260;20.822;2023-11-19T01:21:49;8.15;;;6.38;;
52776;SDS011;38656;54.260;20.822;2023-11-19T01:24:16;7.53;;;6.13;;
52776;SDS011;38656;54.260;20.822;2023-11-19T01:26:43;10.25;;;6.63;;
52776;SDS011;38656;54.260;20.822;2023-11-19T01:29:15;7.57;;;6.88;;
52776;SDS011;38656;54.260;20.822;2023-11-19T01:31:42;7.70;;;6.90;;
52776;SDS011;38656;54.260;20.822;2023-11-19T01:34:08;7.20;;;6.50;;
52776;SDS011;38656;54.260;20.822;2023-11-19T01:36:36;7.95;;;6.82;;
52776;SDS011;38656;54.260;20.822;2023-11-19T01:39:03;9.93;;;7.13;;
52776;SDS011;38656;54.260;20.822;2023-11-19T01:41:33;8.63;;;6.32;;
52776;SDS011;38656;54.260;20.822;2023-11-19T01:44:00;8.68;;;6.78;;
52776;SDS011;38656;54.260;20.822;2023-11-19T01:46:27;7.97;;;6.45;;
52776;SDS011;38656;54.260;20.822;2023-11-19T01:48:54;9.13;;;7.10;;
52776;SDS011;38656;54.260;20.822;2023-11-19T01:51:21;7.65;;;5.95;;
52776;SDS011;38656;54.260;20.822;2023-11-19T01:53:48;7.85;;;5.72;;
52776;SDS011;38656;54.260;20.822;2023-11-19T01:56:15;7.82;;;6.07;;
52776;SDS011;38656;54.260;20.822;2023-11-19T01:58:42;8.20;;;6.53;;
52776;SDS011;38656;54.260;20.822;2023-11-19T02:01:10;10.75;;;7.40;;
52776;SDS011;38656;54.260;20.822;2023-11-19T02:03:37;8.20;;;7.35;;
52776;SDS011;38656;54.260;20.822;2023-11-19T02:06:04;9.90;;;7.75;;
52776;SDS011;38656;54.260;20.822;2023-11-19T02:08:31;11.13;;;8.65;;
52776;SDS011;38656;54.260;20.822;2023-11-19T02:10:57;16.33;;;11.02;;
52776;SDS011;38656;54.260;20.822;2023-11-19T02:13:24;15.88;;;11.68;;
52776;SDS011;38656;54.260;20.822;2023-11-19T02:15:51;18.80;;;11.65;;
52776;SDS011;38656;54.260;20.822;2023-11-19T02:20:48;24.60;;;13.73;;
52776;SDS011;38656;54.260;20.822;2023-11-19T02:23:15;19.17;;;13.13;;
52776;SDS011;38656;54.260;20.822;2023-11-19T02:25:42;14.68;;;9.55;;
52776;SDS011;38656;54.260;20.822;2023-11-19T02:28:12;11.02;;;8.48;;
52776;SDS011;38656;54.260;20.822;2023-11-19T02:30:39;10.15;;;7.35;;
52776;SDS011;38656;54.260;20.822;2023-11-19T02:33:06;7.07;;;6.30;;
52776;SDS011;38656;54.260;20.822;2023-11-19T02:35:32;8.77;;;7.38;;
52776;SDS011;38656;54.260;20.822;2023-11-19T02:37:59;9.32;;;8.30;;
52776;SDS011;38656;54.260;20.822;2023-11-19T02:40:32;7.75;;;6.95;;
52776;SDS011;38656;54.260;20.822;2023-11-19T02:42:58;11.38;;;9.57;;
52776;SDS011;38656;54.260;20.822;2023-11-19T02:45:24;16.15;;;12.27;;
52776;SDS011;38656;54.260;20.822;2023-11-19T02:47:51;14.80;;;10.65;;
52776;SDS011;38656;54.260;20.822;2023-11-19T02:50:19;12.27;;;10.63;;
52776;SDS011;38656;54.260;20.822;2023-11-19T02:52:50;7.45;;;6.57;;
52776;SDS011;38656;54.260;20.822;2023-11-19T02:55:18;8.18;;;7.38;;
52776;SDS011;38656;54.260;20.822;2023-11-19T02:57:44;9.50;;;6.68;;
52776;SDS011;38656;54.260;20.822;2023-11-19T03:00:20;8.82;;;7.03;;
52776;SDS011;38656;54.260;20.822;2023-11-19T03:02:56;8.50;;;7.20;;
52776;SDS011;38656;54.260;20.822;2023-11-19T03:05:30;10.95;;;8.27;;
52776;SDS011;38656;54.260;20.822;2023-11-19T03:07:56;7.68;;;6.80;;
52776;SDS011;38656;54.260;20.822;2023-11-19T03:10:23;7.25;;;6.38;;
52776;SDS011;38656;54.260;20.822;2023-11-19T03:12:49;8.80;;;5.32;;
52776;SDS011;38656;54.260;20.822;2023-11-19T03:15:16;6.63;;;6.03;;
52776;SDS011;38656;54.260;20.822;2023-11-19T03:17:42;7.85;;;6.63;;
52776;SDS011;38656;54.260;20.822;2023-11-19T03:20:09;8.07;;;5.80;;
52776;SDS011;38656;54.260;20.822;2023-11-19T03:22:40;6.97;;;6.22;;
52776;SDS011;38656;54.260;20.822;2023-11-19T03:25:07;8.80;;;6.68;;
52776;SDS011;38656;54.260;20.822;2023-11-19T03:27:37;6.63;;;5.82;;
52776;SDS011;38656;54.260;20.822;2023-11-19T03:30:04;8.05;;;6.53;;
52776;SDS011;38656;54.260;20.822;2023-11-19T03:32:31;8.18;;;7.38;;
52776;SDS011;38656;54.260;20.822;2023-11-19T03:35:00;7.47;;;6.45;;
52776;SDS011;38656;54.260;20.822;2023-11-19T03:37:29;7.55;;;6.63;;
52776;SDS011;38656;54.260;20.822;2023-11-19T03:39:57;7.90;;;7.10;;
52776;SDS011;38656;54.260;20.822;2023-11-19T03:42:28;10.30;;;7.57;;
52776;SDS011;38656;54.260;20.822;2023-11-19T03:44:55;9.73;;;6.80;;
52776;SDS011;38656;54.260;20.822;2023-11-19T03:47:22;9.55;;;6.60;;
52776;SDS011;38656;54.260;20.822;2023-11-19T03:49:49;7.68;;;6.60;;
52776;SDS011;38656;54.260;20.822;2023-11-19T03:52:16;9.18;;;7.15;;
52776;SDS011;38656;54.260;20.822;2023-11-19T03:54:43;7.38;;;6.68;;
52776;SDS011;38656;54.260;20.822;2023-11-19T03:57:10;10.07;;;8.32;;
52776;SDS011;38656;54.260;20.822;2023-11-19T03:59:41;9.30;;;8.38;;
52776;SDS011;38656;54.260;20.822;2023-11-19T04:02:07;10.52;;;8.70;;
52776;SDS011;38656;54.260;20.822;2023-11-19T04:04:33;9.57;;;8.68;;
52776;SDS011;38656;54.260;20.822;2023-11-19T04:07:00;9.38;;;8.48;;
52776;SDS011;38656;54.260;20.822;2023-11-19T04:09:28;9.30;;;8.40;;
52776;SDS011;38656;54.260;20.822;2023-11-19T04:11:55;9.25;;;7.78;;
52776;SDS011;38656;54.260;20.822;2023-11-19T04:14:21;9.30;;;8.43;;
52776;SDS011;38656;54.260;20.822;2023-11-19T04:16:48;8.98;;;8.05;;
52776;SDS011;38656;54.260;20.822;2023-11-19T04:19:14;9.20;;;8.02;;
52776;SDS011;38656;54.260;20.822;2023-11-19T04:21:40;8.57;;;7.30;;
52776;SDS011;38656;54.260;20.822;2023-11-19T04:24:07;8.98;;;7.35;;
52776;SDS011;38656;54.260;20.822;2023-11-19T04:26:39;8.05;;;6.72;;
52776;SDS011;38656;54.260;20.822;2023-11-19T04:29:11;8.02;;;6.93;;
52776;SDS011;38656;54.260;20.822;2023-11-19T04:31:38;8.07;;;7.25;;
52776;SDS011;38656;54.260;20.822;2023-11-19T04:34:05;7.95;;;6.82;;
52776;SDS011;38656;54.260;20.822;2023-11-19T04:36:32;8.45;;;7.47;;
52776;SDS011;38656;54.260;20.822;2023-11-19T04:38:59;11.18;;;7.57;;
52776;SDS011;38656;54.260;20.822;2023-11-19T04:41:25;10.93;;;7.03;;
52776;SDS011;38656;54.260;20.822;2023-11-19T04:43:55;9.48;;;8.45;;
52776;SDS011;38656;54.260;20.822;2023-11-19T04:46:21;9.18;;;7.22;;
52776;SDS011;38656;54.260;20.822;2023-11-19T04:48:49;8.23;;;7.43;;
52776;SDS011;38656;54.260;20.822;2023-11-19T04:51:15;7.50;;;6.80;;
52776;SDS011;38656;54.260;20.822;2023-11-19T04:53:42;9.57;;;7.97;;
52776;SDS011;38656;54.260;20.822;2023-11-19T04:56:08;10.80;;;7.50;;
52776;SDS011;38656;54.260;20.822;2023-11-19T04:58:35;9.57;;;7.53;;
52776;SDS011;38656;54.260;20.822;2023-11-19T05:01:02;9.38;;;8.15;;
52776;SDS011;38656;54.260;20.822;2023-11-19T05:03:29;9.70;;;8.80;;
52776;SDS011;38656;54.260;20.822;2023-11-19T05:05:56;8.63;;;7.72;;
52776;SDS011;38656;54.260;20.822;2023-11-19T05:08:23;9.85;;;8.07;;
52776;SDS011;38656;54.260;20.822;2023-11-19T05:10:49;8.55;;;7.28;;
52776;SDS011;38656;54.260;20.822;2023-11-19T05:13:15;11.93;;;7.93;;
52776;SDS011;38656;54.260;20.822;2023-11-19T05:15:42;8.98;;;7.13;;
52776;SDS011;38656;54.260;20.822;2023-11-19T05:18:08;7.47;;;6.47;;
52776;SDS011;38656;54.260;20.822;2023-11-19T05:20:34;16.40;;;5.90;;
52776;SDS011;38656;54.260;20.822;2023-11-19T05:23:00;6.03;;;5.43;;
52776;SDS011;38656;54.260;20.822;2023-11-19T05:25:27;5.70;;;4.95;;
52776;SDS011;38656;54.260;20.822;2023-11-19T05:27:53;5.82;;;4.70;;
52776;SDS011;38656;54.260;20.822;2023-11-19T05:30:19;4.95;;;4.38;;
52776;SDS011;38656;54.260;20.822;2023-11-19T05:32:46;5.13;;;4.30;;
52776;SDS011;38656;54.260;20.822;2023-11-19T05:35:12;4.88;;;4.22;;
52776;SDS011;38656;54.260;20.822;2023-11-19T05:37:38;4.97;;;4.38;;
52776;SDS011;38656;54.260;20.822;2023-11-19T05:40:05;5.82;;;4.70;;
52776;SDS011;38656;54.260;20.822;2023-11-19T05:45:09;6.60;;;5.00;;
52776;SDS011;38656;54.260;20.822;2023-11-19T05:47:36;8.15;;;4.47;;
52776;SDS011;38656;54.260;20.822;2023-11-19T05:50:02;6.75;;;5.10;;
52776;SDS011;38656;54.260;20.822;2023-11-19T05:52:31;9.38;;;5.90;;
52776;SDS011;38656;54.260;20.822;2023-11-19T05:55:01;6.80;;;5.20;;
52776;SDS011;38656;54.260;20.822;2023-11-19T05:57:30;10.80;;;6.72;;
52776;SDS011;38656;54.260;20.822;2023-11-19T05:59:59;23.33;;;14.60;;
52776;SDS011;38656;54.260;20.822;2023-11-19T06:02:25;10.00;;;7.30;;
52776;SDS011;38656;54.260;20.822;2023-11-19T06:04:52;7.50;;;5.70;;
52776;SDS011;38656;54.260;20.822;2023-11-19T06:07:19;8.05;;;4.68;;
52776;SDS011;38656;54.260;20.822;2023-11-19T06:09:45;5.50;;;5.00;;
52776;SDS011;38656;54.260;20.822;2023-11-19T06:12:11;5.55;;;4.95;;
52776;SDS011;38656;54.260;20.822;2023-11-19T06:14:39;4.55;;;4.13;;
52776;SDS011;38656;54.260;20.822;2023-11-19T06:17:06;6.43;;;4.80;;
52776;SDS011;38656;54.260;20.822;2023-11-19T06:19:33;5.70;;;5.15;;
52776;SDS011;38656;54.260;20.822;2023-11-19T06:21:59;6.03;;;5.40;;
52776;SDS011;38656;54.260;20.822;2023-11-19T06:24:25;5.15;;;4.65;;
52776;SDS011;38656;54.260;20.822;2023-11-19T06:26:52;12.18;;;8.05;;
52776;SDS011;38656;54.260;20.822;2023-11-19T06:29:18;7.68;;;5.78;;
52776;SDS011;38656;54.260;20.822;2023-11-19T06:31:47;7.32;;;6.55;;
52776;SDS011;38656;54.260;20.822;2023-11-19T06:34:14;7.10;;;5.95;;
52776;SDS011;38656;54.260;20.822;2023-11-19T06:36:40;8.48;;;7.57;;
52776;SDS011;38656;54.260;20.822;2023-11-19T06:39:08;6.88;;;5.78;;
52776;SDS011;38656;54.260;20.822;2023-11-19T06:41:35;6.93;;;5.82;;
52776;SDS011;38656;54.260;20.822;2023-11-19T06:44:05;7.25;;;6.07;;
52776;SDS011;38656;54.260;20.822;2023-11-19T06:46:31;6.03;;;5.28;;
52776;SDS011;38656;54.260;20.822;2023-11-19T06:48:57;9.48;;;6.07;;
52776;SDS011;38656;54.260;20.822;2023-11-19T06:51:23;6.65;;;5.97;;
52776;SDS011;38656;54.260;20.822;2023-11-19T06:53:50;9.18;;;8.25;;
52776;SDS011;38656;54.260;20.822;2023-11-19T06:56:19;8.00;;;6.82;;
52776;SDS011;38656;54.260;20.822;2023-11-19T06:58:46;6.93;;;6.22;;
52776;SDS011;38656;54.260;20.822;2023-11-19T07:01:13;6.18;;;5.57;;
52776;SDS011;38656;54.260;20.822;2023-11-19T07:03:44;7.82;;;6.78;;
52776;SDS011;38656;54.260;20.822;2023-11-19T07:06:11;13.40;;;7.38;;
52776;SDS011;38656;54.260;20.822;2023-11-19T07:08:40;12.02;;;7.57;;
52776;SDS011;38656;54.260;20.822;2023-11-19T07:11:10;18.00;;;9.90;;
52776;SDS011;38656;54.260;20.822;2023-11-19T07:13:37;20.48;;;10.40;;
52776;SDS011;38656;54.260;20.822;2023-11-19T07:16:03;14.65;;;9.90;;
52776;SDS011;38656;54.260;20.822;2023-11-19T07:18:30;9.43;;;7.18;;
52776;SDS011;38656;54.260;20.822;2023-11-19T07:20:57;5.13;;;4.63;;
52776;SDS011;38656;54.260;20.822;2023-11-19T07:23:24;9.00;;;5.63;;
52776;SDS011;38656;54.260;20.822;2023-11-19T07:25:51;6.55;;;5.57;;
52776;SDS011;38656;54.260;20.822;2023-11-19T07:28:18;6.88;;;5.82;;
52776;SDS011;38656;54.260;20.822;2023-11-19T07:30:44;7.45;;;6.65;;
52776;SDS011;38656;54.260;20.822;2023-11-19T07:33:11;11.75;;;8.95;;
52776;SDS011;38656;54.260;20.822;2023-11-19T07:35:38;11.82;;;9.52;;
52776;SDS011;38656;54.260;20.822;2023-11-19T07:38:07;8.52;;;7.63;;
52776;SDS011;38656;54.260;20.822;2023-11-19T07:40:33;12.80;;;9.50;;
52776;SDS011;38656;54.260;20.822;2023-11-19T07:42:59;14.25;;;12.75;;
52776;SDS011;38656;54.260;20.822;2023-11-19T07:45:26;13.70;;;11.60;;
52776;SDS011;38656;54.260;20.822;2023-11-19T07:47:52;15.93;;;12.82;;
52776;SDS011;38656;54.260;20.822;2023-11-19T07:50:19;24.52;;;19.40;;
52776;SDS011;38656;54.260;20.822;2023-11-19T07:52:47;20.77;;;15.60;;
52776;SDS011;38656;54.260;20.822;2023-11-19T07:55:13;39.85;;;24.80;;
52776;SDS011;38656;54.260;20.822;2023-11-19T07:57:40;36.65;;;22.30;;
52776;SDS011;38656;54.260;20.822;2023-11-19T08:00:06;17.80;;;15.10;;
52776;SDS011;38656;54.260;20.822;2023-11-19T08:02:37;17.23;;;15.18;;
52776;SDS011;38656;54.260;20.822;2023-11-19T08:05:04;17.15;;;14.68;;
52776;SDS011;38656;54.260;20.822;2023-11-19T08:07:30;21.42;;;16.77;;
52776;SDS011;38656;54.260;20.822;2023-11-19T08:09:57;23.50;;;18.63;;
52776;SDS011;38656;54.260;20.822;2023-11-19T08:12:23;20.52;;;18.10;;
52776;SDS011;38656;54.260;20.822;2023-11-19T08:14:49;23.05;;;18.70;;
52776;SDS011;38656;54.260;20.822;2023-11-19T08:17:15;24.02;;;19.70;;
52776;SDS011;38656;54.260;20.822;2023-11-19T08:19:42;25.35;;;21.27;;
52776;SDS011;38656;54.260;20.822;2023-11-19T08:22:08;25.92;;;20.10;;
52776;SDS011;38656;54.260;20.822;2023-11-19T08:24:34;71.80;;;43.15;;
52776;SDS011;38656;54.260;20.822;2023-11-19T08:27:01;30.48;;;24.85;;
52776;SDS011;38656;54.260;20.822;2023-11-19T08:29:27;33.28;;;24.58;;
52776;SDS011;38656;54.260;20.822;2023-11-19T08:31:54;25.58;;;21.95;;
52776;SDS011;38656;54.260;20.822;2023-11-19T08:34:20;33.42;;;28.98;;
52776;SDS011;38656;54.260;20.822;2023-11-19T08:36:49;40.95;;;36.83;;
52776;SDS011;38656;54.260;20.822;2023-11-19T08:39:18;30.75;;;26.70;;
52776;SDS011;38656;54.260;20.822;2023-11-19T08:41:46;29.67;;;23.80;;
52776;SDS011;38656;54.260;20.822;2023-11-19T08:44:13;29.40;;;24.55;;
52776;SDS011;38656;54.260;20.822;2023-11-19T08:46:45;32.80;;;26.70;;
52776;SDS011;38656;54.260;20.822;2023-11-19T08:49:15;30.90;;;25.45;;
52776;SDS011;38656;54.260;20.822;2023-11-19T08:51:41;32.33;;;27.67;;
52776;SDS011;38656;54.260;20.822;2023-11-19T08:54:07;32.03;;;25.50;;
52776;SDS011;38656;54.260;20.822;2023-11-19T08:56:34;28.20;;;23.83;;
52776;SDS011;38656;54.260;20.822;2023-11-19T08:59:00;30.15;;;22.95;;
52776;SDS011;38656;54.260;20.822;2023-11-19T09:01:27;26.25;;;20.95;;
52776;SDS011;38656;54.260;20.822;2023-11-19T09:03:53;28.58;;;22.48;;
52776;SDS011;38656;54.260;20.822;2023-11-19T09:06:20;27.42;;;22.85;;
52776;SDS011;38656;54.260;20.822;2023-11-19T09:08:47;34.22;;;25.48;;
52776;SDS011;38656;54.260;20.822;2023-11-19T09:11:13;30.73;;;25.60;;
52776;SDS011;38656;54.260;20.822;2023-11-19T09:13:40;35.72;;;27.83;;
52776;SDS011;38656;54.260;20.822;2023-11-19T09:16:06;32.97;;;25.52;;
52776;SDS011;38656;54.260;20.822;2023-11-19T09:18:33;36.08;;;27.27;;
52776;SDS011;38656;54.260;20.822;2023-11-19T09:21:00;37.28;;;26.35;;
52776;SDS011;38656;54.260;20.822;2023-11-19T09:23:27;44.80;;;31.38;;
52776;SDS011;38656;54.260;20.822;2023-11-19T09:25:55;44.17;;;29.67;;
52776;SDS011;38656;54.260;20.822;2023-11-19T09:28:21;46.55;;;34.17;;
52776;SDS011;38656;54.260;20.822;2023-11-19T09:30:47;52.38;;;35.75;;
52776;SDS011;38656;54.260;20.822;2023-11-19T09:33:14;60.92;;;41.90;;
52776;SDS011;38656;54.260;20.822;2023-11-19T09:35:40;78.20;;;45.40;;
52776;SDS011;38656;54.260;20.822;2023-11-19T09:38:06;74.60;;;48.13;;
52776;SDS011;38656;54.260;20.822;2023-11-19T09:40:32;63.92;;;41.42;;
52776;SDS011;38656;54.260;20.822;2023-11-19T09:42:59;92.55;;;50.15;;
52776;SDS011;38656;54.260;20.822;2023-11-19T09:45:27;73.97;;;49.42;;
52776;SDS011;38656;54.260;20.822;2023-11-19T09:47:54;71.35;;;42.33;;
52776;SDS011;38656;54.260;20.822;2023-11-19T09:50:22;60.72;;;36.17;;
52776;SDS011;38656;54.260;20.822;2023-11-19T09:52:49;184.65;;;72.25;;
52776;SDS011;38656;54.260;20.822;2023-11-19T09:55:15;128.80;;;53.90;;
52776;SDS011;38656;54.260;20.822;2023-11-19T09:57:42;168.00;;;61.90;;
52776;SDS011;38656;54.260;20.822;2023-11-19T10:00:09;335.17;;;111.57;;
52776;SDS011;38656;54.260;20.822;2023-11-19T10:02:38;226.57;;;87.78;;
52776;SDS011;38656;54.260;20.822;2023-11-19T10:05:08;287.90;;;97.53;;
52776;SDS011;38656;54.260;20.822;2023-11-19T10:07:35;548.50;;;210.30;;
52776;SDS011;38656;54.260;20.822;2023-11-19T10:10:03;87.00;;;42.75;;
52776;SDS011;38656;54.260;20.822;2023-11-19T10:12:30;396.58;;;187.77;;
52776;SDS011;38656;54.260;20.822;2023-11-19T10:14:57;627.63;;;323.75;;
52776;SDS011;38656;54.260;20.822;2023-11-19T10:17:27;380.00;;;111.43;;
52776;SDS011;38656;54.260;20.822;2023-11-19T10:19:57;446.02;;;158.77;;
52776;SDS011;38656;54.260;20.822;2023-11-19T10:22:23;525.70;;;230.43;;
52776;SDS011;38656;54.260;20.822;2023-11-19T10:24:50;293.27;;;99.85;;
52776;SDS011;38656;54.260;20.822;2023-11-19T10:27:16;362.17;;;142.25;;
52776;SDS011;38656;54.260;20.822;2023-11-19T10:29:46;110.13;;;51.53;;
52776;SDS011;38656;54.260;20.822;2023-11-19T10:32:13;1194.90;;;646.03;;
52776;SDS011;38656;54.260;20.822;2023-11-19T10:34:40;660.13;;;358.73;;
52776;SDS011;38656;54.260;20.822;2023-11-19T10:37:07;660.25;;;326.25;;
52776;SDS011;38656;54.260;20.822;2023-11-19T10:39:52;809.00;;;415.95;;
52776;SDS011;38656;54.260;20.822;2023-11-19T10:42:19;1046.60;;;584.60;;
52776;SDS011;38656;54.260;20.822;2023-11-19T10:44:46;775.83;;;446.67;;
52776;SDS011;38656;54.260;20.822;2023-11-19T10:47:15;370.92;;;154.32;;
52776;SDS011;38656;54.260;20.822;2023-11-19T10:49:45;370.98;;;182.57;;
52776;SDS011;38656;54.260;20.822;2023-11-19T10:52:12;239.25;;;114.78;;
52776;SDS011;38656;54.260;20.822;2023-11-19T10:54:43;382.38;;;211.85;;
52776;SDS011;38656;54.260;20.822;2023-11-19T10:57:13;319.67;;;148.43;;
52776;SDS011;38656;54.260;20.822;2023-11-19T10:59:47;306.13;;;108.00;;
52776;SDS011;38656;54.260;20.822;2023-11-19T11:02:16;166.38;;;86.88;;
52776;SDS011;38656;54.260;20.822;2023-11-19T11:04:47;173.05;;;80.28;;
52776;SDS011;38656;54.260;20.822;2023-11-19T11:07:16;80.53;;;52.83;;
52776;SDS011;38656;54.260;20.822;2023-11-19T11:09:46;136.57;;;72.28;;
52776;SDS011;38656;54.260;20.822;2023-11-19T11:12:14;249.90;;;99.28;;
52776;SDS011;38656;54.260;20.822;2023-11-19T11:14:43;208.20;;;71.43;;
52776;SDS011;38656;54.260;20.822;2023-11-19T11:17:11;162.77;;;64.35;;
52776;SDS011;38656;54.260;20.822;2023-11-19T11:19:42;74.10;;;43.67;;
52776;SDS011;38656;54.260;20.822;2023-11-19T11:22:09;73.10;;;42.97;;
52776;SDS011;38656;54.260;20.822;2023-11-19T11:38:50;79.65;;;52.63;;
52776;SDS011;38656;54.260;20.822;2023-11-19T11:41:21;60.90;;;45.17;;
52776;SDS011;38656;54.260;20.822;2023-11-19T11:43:50;44.63;;;32.03;;
52776;SDS011;38656;54.260;20.822;2023-11-19T11:49:00;42.80;;;33.03;;
52776;SDS011;38656;54.260;20.822;2023-11-19T11:54:25;39.97;;;34.58;;
52776;SDS011;38656;54.260;20.822;2023-11-19T11:57:03;38.47;;;30.38;;
52776;SDS011;38656;54.260;20.822;2023-11-19T11:59:49;46.75;;;41.13;;
52776;SDS011;38656;54.260;20.822;2023-11-19T12:02:16;37.38;;;27.88;;
52776;SDS011;38656;54.260;20.822;2023-11-19T12:04:47;32.60;;;25.95;;
52776;SDS011;38656;54.260;20.822;2023-11-19T12:07:18;33.58;;;26.02;;
52776;SDS011;38656;54.260;20.822;2023-11-19T12:09:48;33.67;;;27.30;;
52776;SDS011;38656;54.260;20.822;2023-11-19T12:12:26;38.70;;;29.13;;
52776;SDS011;38656;54.260;20.822;2023-11-19T12:18:09;31.38;;;23.50;;
52776;SDS011;38656;54.260;20.822;2023-11-19T12:20:17;36.28;;;28.77;;
52776;SDS011;38656;54.260;20.822;2023-11-19T12:22:46;55.92;;;46.33;;
52776;SDS011;38656;54.260;20.822;2023-11-19T12:25:14;40.35;;;34.15;;
52776;SDS011;38656;54.260;20.822;2023-11-19T12:27:42;37.80;;;29.77;;
52776;SDS011;38656;54.260;20.822;2023-11-19T12:30:09;29.98;;;24.58;;
52776;SDS011;38656;54.260;20.822;2023-11-19T12:32:39;47.42;;;41.08;;
52776;SDS011;38656;54.260;20.822;2023-11-19T12:35:06;41.85;;;33.25;;
52776;SDS011;38656;54.260;20.822;2023-11-19T12:37:40;35.67;;;30.67;;
52776;SDS011;38656;54.260;20.822;2023-11-19T12:40:25;70.47;;;50.28;;
52776;SDS011;38656;54.260;20.822;2023-11-19T12:42:54;35.90;;;28.45;;
52776;SDS011;38656;54.260;20.822;2023-11-19T12:45:20;161.85;;;88.82;;
52776;SDS011;38656;54.260;20.822;2023-11-19T12:47:48;58.72;;;46.22;;
52776;SDS011;38656;54.260;20.822;2023-11-19T12:50:17;51.15;;;43.72;;
52776;SDS011;38656;54.260;20.822;2023-11-19T12:52:54;39.05;;;29.63;;
52776;SDS011;38656;54.260;20.822;2023-11-19T12:55:27;35.72;;;28.38;;
52776;SDS011;38656;54.260;20.822;2023-11-19T12:57:54;32.80;;;24.35;;
52776;SDS011;38656;54.260;20.822;2023-11-19T13:00:23;153.35;;;74.53;;
52776;SDS011;38656;54.260;20.822;2023-11-19T13:02:52;49.22;;;38.55;;
52776;SDS011;38656;54.260;20.822;2023-11-19T13:05:29;37.65;;;29.85;;
52776;SDS011;38656;54.260;20.822;2023-11-19T13:08:15;51.80;;;40.80;;
52776;SDS011;38656;54.260;20.822;2023-11-19T13:13:14;31.98;;;28.30;;
52776;SDS011;38656;54.260;20.822;2023-11-19T13:15:41;43.25;;;33.55;;
52776;SDS011;38656;54.260;20.822;2023-11-19T13:18:09;38.55;;;30.10;;
52776;SDS011;38656;54.260;20.822;2023-11-19T13:20:36;39.67;;;31.55;;
52776;SDS011;38656;54.260;20.822;2023-11-19T13:23:04;78.93;;;50.63;;
52776;SDS011;38656;54.260;20.822;2023-11-19T13:25:32;35.60;;;25.73;;
52776;SDS011;38656;54.260;20.822;2023-11-19T13:27:58;49.35;;;37.97;;
52776;SDS011;38656;54.260;20.822;2023-11-19T13:30:25;52.33;;;42.45;;
52776;SDS011;38656;54.260;20.822;2023-11-19T13:32:51;69.57;;;48.20;;
52776;SDS011;38656;54.260;20.822;2023-11-19T13:35:20;37.55;;;30.95;;
52776;SDS011;38656;54.260;20.822;2023-11-19T13:37:49;29.92;;;22.92;;
52776;SDS011;38656;54.260;20.822;2023-11-19T13:40:16;49.72;;;38.78;;
52776;SDS011;38656;54.260;20.822;2023-11-19T13:42:44;42.10;;;34.00;;
52776;SDS011;38656;54.260;20.822;2023-11-19T13:45:11;47.95;;;36.47;;
52776;SDS011;38656;54.260;20.822;2023-11-19T13:47:47;33.65;;;26.35;;
52776;SDS011;38656;54.260;20.822;2023-11-19T13:50:14;24.08;;;21.38;;
52776;SDS011;38656;54.260;20.822;2023-11-19T13:52:45;25.80;;;21.77;;
52776;SDS011;38656;54.260;20.822;2023-11-19T13:55:12;50.65;;;41.05;;
52776;SDS011;38656;54.260;20.822;2023-11-19T13:57:39;58.47;;;41.15;;
52776;SDS011;38656;54.260;20.822;2023-11-19T14:00:07;85.00;;;56.67;;
52776;SDS011;38656;54.260;20.822;2023-11-19T14:02:43;59.33;;;52.95;;
52776;SDS011;38656;54.260;20.822;2023-11-19T14:05:12;81.15;;;57.97;;
52776;SDS011;38656;54.260;20.822;2023-11-19T14:07:40;52.33;;;45.22;;
52776;SDS011;38656;54.260;20.822;2023-11-19T14:10:07;29.08;;;25.42;;
52776;SDS011;38656;54.260;20.822;2023-11-19T14:12:34;41.13;;;32.90;;
52776;SDS011;38656;54.260;20.822;2023-11-19T14:15:04;157.52;;;96.45;;
52776;SDS011;38656;54.260;20.822;2023-11-19T14:17:42;47.92;;;37.03;;
52776;SDS011;38656;54.260;20.822;2023-11-19T14:20:09;105.85;;;57.47;;
52776;SDS011;38656;54.260;20.822;2023-11-19T14:22:41;444.45;;;224.60;;
52776;SDS011;38656;54.260;20.822;2023-11-19T14:25:11;87.13;;;45.28;;
52776;SDS011;38656;54.260;20.822;2023-11-19T14:27:37;360.13;;;167.65;;
52776;SDS011;38656;54.260;20.822;2023-11-19T14:30:10;110.60;;;94.03;;
52776;SDS011;38656;54.260;20.822;2023-11-19T14:32:38;65.28;;;40.47;;
52776;SDS011;38656;54.260;20.822;2023-11-19T14:35:07;27.48;;;24.55;;
52776;SDS011;38656;54.260;20.822;2023-11-19T14:37:33;30.83;;;26.83;;
52776;SDS011;38656;54.260;20.822;2023-11-19T14:39:59;21.33;;;19.02;;
52776;SDS011;38656;54.260;20.822;2023-11-19T14:42:29;30.67;;;21.55;;
52776;SDS011;38656;54.260;20.822;2023-11-19T14:44:56;47.90;;;43.25;;
52776;SDS011;38656;54.260;20.822;2023-11-19T14:47:22;36.47;;;32.85;;
52776;SDS011;38656;54.260;20.822;2023-11-19T14:49:49;26.23;;;21.88;;